sensor_id;sensor_type;location;lat;lon;timestamp;P1;durP1;ratioP1;P2;durP2;ratioP2
20411;SDS011;10365;52.578;8.138;2023-11-21T00:00:20;61.10;;;19.98;;
20411;SDS011;10365;52.578;8.138;2023-11-21T00:02:46;51.17;;;19.48;;
20411;SDS011;10365;52.578;8.138;2023-11-21T00:05:12;53.30;;;20.48;;
20411;SDS011;10365;52.578;8.138;2023-11-21T00:07:39;52.10;;;19.88;;
20411;SDS011;10365;52.578;8.138;2023-11-21T00:10:06;57.15;;;20.20;;
20411;SDS011;10365;52.578;8.138;2023-11-21T00:12:33;55.30;;;20.23;;
20411;SDS011;10365;52.578;8.138;2023-11-21T00:14:59;56.95;;;19.90;;
20411;SDS011;10365;52.578;8.138;2023-11-21T00:17:24;64.25;;;19.85;;
20411;SDS011;10365;52.578;8.138;2023-11-21T00:19:50;58.55;;;19.05;;
20411;SDS011;10365;52.578;8.138;2023-11-21T00:22:17;62.30;;;20.50;;
20411;SDS011;10365;52.578;8.138;2023-11-21T00:24:43;70.95;;;21.52;;
20411;SDS011;10365;52.578;8.138;2023-11-21T00:27:08;53.70;;;19.42;;
20411;SDS011;10365;52.578;8.138;2023-11-21T00:29:34;62.20;;;21.60;;
20411;SDS011;10365;52.578;8.138;2023-11-21T00:31:59;67.22;;;20.40;;
20411;SDS011;10365;52.578;8.138;2023-11-21T00:34:25;58.65;;;20.92;;
20411;SDS011;10365;52.578;8.138;2023-11-21T00:36:50;67.55;;;21.90;;
20411;SDS011;10365;52.578;8.138;2023-11-21T00:39:15;65.05;;;21.60;;
20411;SDS011;10365;52.578;8.138;2023-11-21T00:41:41;68.57;;;20.83;;
20411;SDS011;10365;52.578;8.138;2023-11-21T00:44:07;62.47;;;20.85;;
20411;SDS011;10365;52.578;8.138;2023-11-21T00:46:32;62.53;;;21.05;;
20411;SDS011;10365;52.578;8.138;2023-11-21T00:48:57;58.00;;;20.55;;
20411;SDS011;10365;52.578;8.138;2023-11-21T00:51:24;58.97;;;21.45;;
20411;SDS011;10365;52.578;8.138;2023-11-21T00:53:50;64.28;;;23.05;;
20411;SDS011;10365;52.578;8.138;2023-11-21T00:56:18;61.13;;;22.48;;
20411;SDS011;10365;52.578;8.138;2023-11-21T00:58:44;65.30;;;21.17;;
20411;SDS011;10365;52.578;8.138;2023-11-21T01:01:12;71.78;;;21.20;;
20411;SDS011;10365;52.578;8.138;2023-11-21T01:03:37;62.65;;;21.77;;
20411;SDS011;10365;52.578;8.138;2023-11-21T01:06:03;68.97;;;21.88;;
20411;SDS011;10365;52.578;8.138;2023-11-21T01:08:30;71.22;;;23.15;;
20411;SDS011;10365;52.578;8.138;2023-11-21T01:10:56;72.90;;;21.90;;
20411;SDS011;10365;52.578;8.138;2023-11-21T01:13:21;68.20;;;21.98;;
20411;SDS011;10365;52.578;8.138;2023-11-21T01:15:47;60.83;;;22.13;;
20411;SDS011;10365;52.578;8.138;2023-11-21T01:18:12;68.18;;;21.65;;
20411;SDS011;10365;52.578;8.138;2023-11-21T01:20:38;78.60;;;23.45;;
20411;SDS011;10365;52.578;8.138;2023-11-21T01:23:05;67.18;;;23.35;;
20411;SDS011;10365;52.578;8.138;2023-11-21T01:25:30;73.85;;;24.73;;
20411;SDS011;10365;52.578;8.138;2023-11-21T01:27:56;85.63;;;25.73;;
20411;SDS011;10365;52.578;8.138;2023-11-21T01:30:21;80.53;;;24.55;;
20411;SDS011;10365;52.578;8.138;2023-11-21T01:32:47;85.97;;;24.65;;
20411;SDS011;10365;52.578;8.138;2023-11-21T01:35:12;79.88;;;25.08;;
20411;SDS011;10365;52.578;8.138;2023-11-21T01:37:38;77.28;;;26.33;;
20411;SDS011;10365;52.578;8.138;2023-11-21T01:40:04;74.28;;;25.60;;
20411;SDS011;10365;52.578;8.138;2023-11-21T01:42:33;77.13;;;24.40;;
20411;SDS011;10365;52.578;8.138;2023-11-21T01:45:00;88.78;;;26.10;;
20411;SDS011;10365;52.578;8.138;2023-11-21T01:47:27;80.22;;;25.55;;
20411;SDS011;10365;52.578;8.138;2023-11-21T01:49:52;90.53;;;25.95;;
20411;SDS011;10365;52.578;8.138;2023-11-21T01:52:18;85.45;;;26.48;;
20411;SDS011;10365;52.578;8.138;2023-11-21T01:54:44;76.45;;;24.58;;
20411;SDS011;10365;52.578;8.138;2023-11-21T01:57:12;94.82;;;26.55;;
20411;SDS011;10365;52.578;8.138;2023-11-21T01:59:38;98.22;;;26.88;;
20411;SDS011;10365;52.578;8.138;2023-11-21T02:02:06;79.72;;;25.00;;
20411;SDS011;10365;52.578;8.138;2023-11-21T02:04:33;89.38;;;25.80;;
20411;SDS011;10365;52.578;8.138;2023-11-21T02:06:59;83.13;;;25.42;;
20411;SDS011;10365;52.578;8.138;2023-11-21T02:09:25;89.53;;;25.73;;
20411;SDS011;10365;52.578;8.138;2023-11-21T02:11:51;68.78;;;23.38;;
20411;SDS011;10365;52.578;8.138;2023-11-21T02:14:16;95.35;;;26.45;;
20411;SDS011;10365;52.578;8.138;2023-11-21T02:16:46;90.28;;;25.88;;
20411;SDS011;10365;52.578;8.138;2023-11-21T02:19:21;81.40;;;25.25;;
20411;SDS011;10365;52.578;8.138;2023-11-21T02:21:51;95.35;;;26.55;;
20411;SDS011;10365;52.578;8.138;2023-11-21T02:24:23;87.70;;;25.85;;
20411;SDS011;10365;52.578;8.138;2023-11-21T02:26:49;85.15;;;25.85;;
20411;SDS011;10365;52.578;8.138;2023-11-21T02:29:18;101.20;;;25.75;;
20411;SDS011;10365;52.578;8.138;2023-11-21T02:31:47;94.68;;;24.92;;
20411;SDS011;10365;52.578;8.138;2023-11-21T02:34:16;95.72;;;25.20;;
20411;SDS011;10365;52.578;8.138;2023-11-21T02:36:44;91.30;;;23.80;;
20411;SDS011;10365;52.578;8.138;2023-11-21T02:39:11;73.60;;;23.60;;
20411;SDS011;10365;52.578;8.138;2023-11-21T02:41:39;77.63;;;23.77;;
20411;SDS011;10365;52.578;8.138;2023-11-21T02:44:07;74.32;;;23.52;;
20411;SDS011;10365;52.578;8.138;2023-11-21T02:46:33;81.43;;;23.90;;
20411;SDS011;10365;52.578;8.138;2023-11-21T02:49:02;107.35;;;25.08;;
20411;SDS011;10365;52.578;8.138;2023-11-21T02:51:28;89.55;;;24.45;;
20411;SDS011;10365;52.578;8.138;2023-11-21T02:53:54;84.22;;;24.05;;
20411;SDS011;10365;52.578;8.138;2023-11-21T02:56:19;92.90;;;23.92;;
20411;SDS011;10365;52.578;8.138;2023-11-21T02:58:45;89.47;;;24.77;;
20411;SDS011;10365;52.578;8.138;2023-11-21T03:01:10;99.28;;;25.55;;
20411;SDS011;10365;52.578;8.138;2023-11-21T03:03:39;91.45;;;25.15;;
20411;SDS011;10365;52.578;8.138;2023-11-21T03:06:05;90.70;;;24.75;;
20411;SDS011;10365;52.578;8.138;2023-11-21T03:08:31;82.55;;;23.40;;
20411;SDS011;10365;52.578;8.138;2023-11-21T03:10:59;74.60;;;22.35;;
20411;SDS011;10365;52.578;8.138;2023-11-21T03:13:24;89.43;;;23.98;;
20411;SDS011;10365;52.578;8.138;2023-11-21T03:15:49;84.20;;;23.50;;
20411;SDS011;10365;52.578;8.138;2023-11-21T03:18:14;88.78;;;24.17;;
20411;SDS011;10365;52.578;8.138;2023-11-21T03:20:40;82.53;;;23.45;;
20411;SDS011;10365;52.578;8.138;2023-11-21T03:23:06;87.30;;;23.45;;
20411;SDS011;10365;52.578;8.138;2023-11-21T03:25:32;94.68;;;24.58;;
20411;SDS011;10365;52.578;8.138;2023-11-21T03:27:57;75.75;;;22.40;;
20411;SDS011;10365;52.578;8.138;2023-11-21T03:30:23;87.65;;;24.33;;
20411;SDS011;10365;52.578;8.138;2023-11-21T03:32:50;100.07;;;27.67;;
20411;SDS011;10365;52.578;8.138;2023-11-21T03:35:15;91.13;;;24.20;;
20411;SDS011;10365;52.578;8.138;2023-11-21T03:37:41;78.72;;;22.63;;
20411;SDS011;10365;52.578;8.138;2023-11-21T03:40:08;84.28;;;23.42;;
20411;SDS011;10365;52.578;8.138;2023-11-21T03:42:34;88.10;;;23.00;;
20411;SDS011;10365;52.578;8.138;2023-11-21T03:44:59;80.63;;;22.52;;
20411;SDS011;10365;52.578;8.138;2023-11-21T03:47:26;81.35;;;21.25;;
20411;SDS011;10365;52.578;8.138;2023-11-21T03:49:51;87.63;;;23.17;;
20411;SDS011;10365;52.578;8.138;2023-11-21T03:52:16;75.95;;;21.48;;
20411;SDS011;10365;52.578;8.138;2023-11-21T03:54:42;78.10;;;22.95;;
20411;SDS011;10365;52.578;8.138;2023-11-21T03:57:08;92.63;;;23.42;;
20411;SDS011;10365;52.578;8.138;2023-11-21T03:59:35;81.35;;;22.85;;
20411;SDS011;10365;52.578;8.138;2023-11-21T04:02:01;81.32;;;23.35;;
20411;SDS011;10365;52.578;8.138;2023-11-21T04:04:26;89.07;;;23.15;;
20411;SDS011;10365;52.578;8.138;2023-11-21T04:06:51;83.47;;;22.42;;
20411;SDS011;10365;52.578;8.138;2023-11-21T04:09:17;77.85;;;22.58;;
20411;SDS011;10365;52.578;8.138;2023-11-21T04:11:42;76.47;;;21.83;;
20411;SDS011;10365;52.578;8.138;2023-11-21T04:14:08;86.40;;;22.95;;
20411;SDS011;10365;52.578;8.138;2023-11-21T04:16:34;77.20;;;20.60;;
20411;SDS011;10365;52.578;8.138;2023-11-21T04:18:59;74.43;;;21.45;;
20411;SDS011;10365;52.578;8.138;2023-11-21T04:21:25;71.82;;;21.88;;
20411;SDS011;10365;52.578;8.138;2023-11-21T04:23:50;79.03;;;21.95;;
20411;SDS011;10365;52.578;8.138;2023-11-21T04:26:16;72.90;;;20.92;;
20411;SDS011;10365;52.578;8.138;2023-11-21T04:28:41;75.30;;;21.25;;
20411;SDS011;10365;52.578;8.138;2023-11-21T04:31:06;68.78;;;19.98;;
20411;SDS011;10365;52.578;8.138;2023-11-21T04:33:32;73.28;;;20.92;;
20411;SDS011;10365;52.578;8.138;2023-11-21T04:35:57;65.60;;;19.60;;
20411;SDS011;10365;52.578;8.138;2023-11-21T04:38:24;69.15;;;19.95;;
20411;SDS011;10365;52.578;8.138;2023-11-21T04:40:49;61.13;;;19.15;;
20411;SDS011;10365;52.578;8.138;2023-11-21T04:43:15;70.38;;;20.58;;
20411;SDS011;10365;52.578;8.138;2023-11-21T04:45:40;56.55;;;17.98;;
20411;SDS011;10365;52.578;8.138;2023-11-21T04:48:06;68.60;;;19.58;;
20411;SDS011;10365;52.578;8.138;2023-11-21T04:50:33;62.53;;;19.48;;
20411;SDS011;10365;52.578;8.138;2023-11-21T04:52:59;59.13;;;18.70;;
20411;SDS011;10365;52.578;8.138;2023-11-21T04:55:24;53.08;;;16.98;;
20411;SDS011;10365;52.578;8.138;2023-11-21T04:57:53;54.10;;;17.02;;
20411;SDS011;10365;52.578;8.138;2023-11-21T05:00:18;56.65;;;17.50;;
20411;SDS011;10365;52.578;8.138;2023-11-21T05:02:43;51.28;;;17.05;;
20411;SDS011;10365;52.578;8.138;2023-11-21T05:05:09;52.63;;;16.48;;
20411;SDS011;10365;52.578;8.138;2023-11-21T05:07:35;44.67;;;16.25;;
20411;SDS011;10365;52.578;8.138;2023-11-21T05:10:00;41.80;;;14.93;;
20411;SDS011;10365;52.578;8.138;2023-11-21T05:12:30;49.88;;;16.25;;
20411;SDS011;10365;52.578;8.138;2023-11-21T05:14:58;43.15;;;14.63;;
20411;SDS011;10365;52.578;8.138;2023-11-21T05:17:23;35.50;;;13.93;;
20411;SDS011;10365;52.578;8.138;2023-11-21T05:19:49;47.25;;;15.02;;
20411;SDS011;10365;52.578;8.138;2023-11-21T05:22:14;38.22;;;13.80;;
20411;SDS011;10365;52.578;8.138;2023-11-21T05:24:39;45.28;;;14.45;;
20411;SDS011;10365;52.578;8.138;2023-11-21T05:27:05;41.95;;;13.60;;
20411;SDS011;10365;52.578;8.138;2023-11-21T05:29:30;39.15;;;13.55;;
20411;SDS011;10365;52.578;8.138;2023-11-21T05:31:55;48.38;;;17.40;;
20411;SDS011;10365;52.578;8.138;2023-11-21T05:34:20;40.70;;;16.65;;
20411;SDS011;10365;52.578;8.138;2023-11-21T05:36:49;43.47;;;16.00;;
20411;SDS011;10365;52.578;8.138;2023-11-21T05:39:14;44.03;;;16.55;;
20411;SDS011;10365;52.578;8.138;2023-11-21T05:41:42;42.38;;;14.88;;
20411;SDS011;10365;52.578;8.138;2023-11-21T05:44:07;40.00;;;14.82;;
20411;SDS011;10365;52.578;8.138;2023-11-21T05:46:32;41.80;;;15.60;;
20411;SDS011;10365;52.578;8.138;2023-11-21T05:48:59;43.53;;;14.43;;
20411;SDS011;10365;52.578;8.138;2023-11-21T05:51:25;36.85;;;15.10;;
20411;SDS011;10365;52.578;8.138;2023-11-21T05:53:50;46.03;;;15.60;;
20411;SDS011;10365;52.578;8.138;2023-11-21T05:56:16;52.30;;;16.77;;
20411;SDS011;10365;52.578;8.138;2023-11-21T05:58:43;40.40;;;14.82;;
20411;SDS011;10365;52.578;8.138;2023-11-21T06:01:08;43.72;;;15.65;;
20411;SDS011;10365;52.578;8.138;2023-11-21T06:03:34;45.20;;;15.98;;
20411;SDS011;10365;52.578;8.138;2023-11-21T06:06:01;44.13;;;15.63;;
20411;SDS011;10365;52.578;8.138;2023-11-21T06:08:26;49.88;;;16.63;;
20411;SDS011;10365;52.578;8.138;2023-11-21T06:10:52;47.42;;;16.98;;
20411;SDS011;10365;52.578;8.138;2023-11-21T06:13:17;45.00;;;15.70;;
20411;SDS011;10365;52.578;8.138;2023-11-21T06:15:49;48.72;;;16.60;;
20411;SDS011;10365;52.578;8.138;2023-11-21T06:18:14;43.17;;;16.08;;
20411;SDS011;10365;52.578;8.138;2023-11-21T06:20:39;51.25;;;17.73;;
20411;SDS011;10365;52.578;8.138;2023-11-21T06:23:05;48.10;;;16.77;;
20411;SDS011;10365;52.578;8.138;2023-11-21T06:25:30;52.47;;;17.67;;
20411;SDS011;10365;52.578;8.138;2023-11-21T06:27:58;58.03;;;19.35;;
20411;SDS011;10365;52.578;8.138;2023-11-21T06:30:23;54.58;;;19.75;;
20411;SDS011;10365;52.578;8.138;2023-11-21T06:32:49;56.67;;;20.02;;
20411;SDS011;10365;52.578;8.138;2023-11-21T06:35:16;44.47;;;16.75;;
20411;SDS011;10365;52.578;8.138;2023-11-21T06:37:41;55.92;;;21.73;;
20411;SDS011;10365;52.578;8.138;2023-11-21T06:40:07;48.22;;;18.83;;
20411;SDS011;10365;52.578;8.138;2023-11-21T06:42:34;62.20;;;20.48;;
20411;SDS011;10365;52.578;8.138;2023-11-21T06:45:00;68.32;;;21.17;;
20411;SDS011;10365;52.578;8.138;2023-11-21T06:47:28;75.18;;;21.92;;
20411;SDS011;10365;52.578;8.138;2023-11-21T06:49:54;60.63;;;20.02;;
20411;SDS011;10365;52.578;8.138;2023-11-21T06:52:20;69.15;;;20.25;;
20411;SDS011;10365;52.578;8.138;2023-11-21T06:54:45;62.13;;;22.30;;
20411;SDS011;10365;52.578;8.138;2023-11-21T06:57:11;65.78;;;22.63;;
20411;SDS011;10365;52.578;8.138;2023-11-21T06:59:36;74.13;;;22.85;;
20411;SDS011;10365;52.578;8.138;2023-11-21T07:02:01;59.60;;;19.75;;
20411;SDS011;10365;52.578;8.138;2023-11-21T07:04:27;70.68;;;20.17;;
20411;SDS011;10365;52.578;8.138;2023-11-21T07:06:53;67.10;;;19.63;;
20411;SDS011;10365;52.578;8.138;2023-11-21T07:09:18;69.75;;;20.35;;
20411;SDS011;10365;52.578;8.138;2023-11-21T07:11:47;88.28;;;24.15;;
20411;SDS011;10365;52.578;8.138;2023-11-21T07:14:14;79.65;;;22.33;;
20411;SDS011;10365;52.578;8.138;2023-11-21T07:16:39;90.85;;;21.67;;
20411;SDS011;10365;52.578;8.138;2023-11-21T07:19:04;84.18;;;21.40;;
20411;SDS011;10365;52.578;8.138;2023-11-21T07:21:33;92.00;;;24.50;;
20411;SDS011;10365;52.578;8.138;2023-11-21T07:24:02;90.38;;;23.50;;
20411;SDS011;10365;52.578;8.138;2023-11-21T07:26:28;92.97;;;24.25;;
20411;SDS011;10365;52.578;8.138;2023-11-21T07:28:54;92.75;;;24.42;;
20411;SDS011;10365;52.578;8.138;2023-11-21T07:31:30;84.05;;;24.27;;
20411;SDS011;10365;52.578;8.138;2023-11-21T07:33:59;86.00;;;23.98;;
20411;SDS011;10365;52.578;8.138;2023-11-21T07:36:25;84.78;;;24.98;;
20411;SDS011;10365;52.578;8.138;2023-11-21T07:38:50;89.95;;;25.55;;
20411;SDS011;10365;52.578;8.138;2023-11-21T07:41:16;109.40;;;26.23;;
20411;SDS011;10365;52.578;8.138;2023-11-21T07:43:42;94.00;;;26.80;;
20411;SDS011;10365;52.578;8.138;2023-11-21T07:46:08;92.82;;;25.20;;
20411;SDS011;10365;52.578;8.138;2023-11-21T07:48:33;76.57;;;23.27;;
20411;SDS011;10365;52.578;8.138;2023-11-21T07:50:59;80.78;;;21.92;;
20411;SDS011;10365;52.578;8.138;2023-11-21T07:53:25;79.57;;;22.60;;
20411;SDS011;10365;52.578;8.138;2023-11-21T07:55:50;44.97;;;15.63;;
20411;SDS011;10365;52.578;8.138;2023-11-21T07:58:16;44.33;;;14.65;;
20411;SDS011;10365;52.578;8.138;2023-11-21T08:00:41;51.08;;;17.45;;
20411;SDS011;10365;52.578;8.138;2023-11-21T08:03:07;65.00;;;20.75;;
20411;SDS011;10365;52.578;8.138;2023-11-21T08:05:33;47.67;;;16.65;;
20411;SDS011;10365;52.578;8.138;2023-11-21T08:07:58;50.15;;;16.30;;
20411;SDS011;10365;52.578;8.138;2023-11-21T08:10:23;49.53;;;17.92;;
20411;SDS011;10365;52.578;8.138;2023-11-21T08:12:49;46.60;;;17.40;;
20411;SDS011;10365;52.578;8.138;2023-11-21T08:15:17;57.53;;;19.48;;
20411;SDS011;10365;52.578;8.138;2023-11-21T08:17:46;57.63;;;20.15;;
20411;SDS011;10365;52.578;8.138;2023-11-21T08:20:13;63.55;;;22.00;;
20411;SDS011;10365;52.578;8.138;2023-11-21T08:22:44;42.70;;;15.65;;
20411;SDS011;10365;52.578;8.138;2023-11-21T08:25:09;54.42;;;20.33;;
20411;SDS011;10365;52.578;8.138;2023-11-21T08:27:35;41.15;;;15.75;;
20411;SDS011;10365;52.578;8.138;2023-11-21T08:30:01;45.17;;;16.17;;
20411;SDS011;10365;52.578;8.138;2023-11-21T08:32:26;53.25;;;18.05;;
20411;SDS011;10365;52.578;8.138;2023-11-21T08:34:51;52.35;;;16.17;;
20411;SDS011;10365;52.578;8.138;2023-11-21T08:37:17;52.03;;;17.73;;
20411;SDS011;10365;52.578;8.138;2023-11-21T08:39:47;59.55;;;20.48;;
20411;SDS011;10365;52.578;8.138;2023-11-21T08:42:13;55.78;;;20.30;;
20411;SDS011;10365;52.578;8.138;2023-11-21T08:44:38;57.53;;;21.23;;
20411;SDS011;10365;52.578;8.138;2023-11-21T08:47:05;51.53;;;18.98;;
20411;SDS011;10365;52.578;8.138;2023-11-21T08:49:30;57.35;;;20.40;;
20411;SDS011;10365;52.578;8.138;2023-11-21T08:51:55;48.85;;;18.70;;
20411;SDS011;10365;52.578;8.138;2023-11-21T08:54:22;52.85;;;17.63;;
20411;SDS011;10365;52.578;8.138;2023-11-21T08:56:48;44.83;;;17.88;;
20411;SDS011;10365;52.578;8.138;2023-11-21T08:59:13;48.28;;;19.05;;
20411;SDS011;10365;52.578;8.138;2023-11-21T09:01:39;49.13;;;18.35;;
20411;SDS011;10365;52.578;8.138;2023-11-21T09:04:05;51.42;;;20.40;;
20411;SDS011;10365;52.578;8.138;2023-11-21T09:06:30;52.33;;;19.38;;
20411;SDS011;10365;52.578;8.138;2023-11-21T09:08:55;32.90;;;13.40;;
20411;SDS011;10365;52.578;8.138;2023-11-21T09:11:21;31.92;;;13.75;;
20411;SDS011;10365;52.578;8.138;2023-11-21T09:13:46;34.80;;;13.57;;
20411;SDS011;10365;52.578;8.138;2023-11-21T09:16:12;37.70;;;15.18;;
20411;SDS011;10365;52.578;8.138;2023-11-21T09:18:39;46.53;;;18.88;;
20411;SDS011;10365;52.578;8.138;2023-11-21T09:21:04;35.13;;;14.25;;
20411;SDS011;10365;52.578;8.138;2023-11-21T09:23:33;41.80;;;15.25;;
20411;SDS011;10365;52.578;8.138;2023-11-21T09:25:58;37.85;;;14.80;;
20411;SDS011;10365;52.578;8.138;2023-11-21T09:28:26;43.28;;;17.48;;
20411;SDS011;10365;52.578;8.138;2023-11-21T09:30:52;46.38;;;18.60;;
20411;SDS011;10365;52.578;8.138;2023-11-21T09:33:21;42.42;;;16.77;;
20411;SDS011;10365;52.578;8.138;2023-11-21T09:35:48;43.25;;;17.05;;
20411;SDS011;10365;52.578;8.138;2023-11-21T09:38:15;51.38;;;20.50;;
20411;SDS011;10365;52.578;8.138;2023-11-21T09:40:41;43.42;;;18.60;;
20411;SDS011;10365;52.578;8.138;2023-11-21T09:43:08;46.28;;;17.73;;
20411;SDS011;10365;52.578;8.138;2023-11-21T09:45:39;49.88;;;19.45;;
20411;SDS011;10365;52.578;8.138;2023-11-21T09:48:05;44.10;;;19.02;;
20411;SDS011;10365;52.578;8.138;2023-11-21T09:50:31;48.83;;;19.63;;
20411;SDS011;10365;52.578;8.138;2023-11-21T09:55:26;39.05;;;16.23;;
20411;SDS011;10365;52.578;8.138;2023-11-21T09:57:52;38.78;;;17.15;;
20411;SDS011;10365;52.578;8.138;2023-11-21T10:00:18;42.78;;;18.02;;
20411;SDS011;10365;52.578;8.138;2023-11-21T10:02:46;46.85;;;17.80;;
20411;SDS011;10365;52.578;8.138;2023-11-21T10:05:14;46.83;;;18.55;;
20411;SDS011;10365;52.578;8.138;2023-11-21T10:07:40;48.00;;;20.42;;
20411;SDS011;10365;52.578;8.138;2023-11-21T10:10:08;50.10;;;20.70;;
20411;SDS011;10365;52.578;8.138;2023-11-21T10:12:35;51.42;;;23.73;;
20411;SDS011;10365;52.578;8.138;2023-11-21T10:15:00;39.70;;;18.08;;
20411;SDS011;10365;52.578;8.138;2023-11-21T10:17:28;33.50;;;15.07;;
20411;SDS011;10365;52.578;8.138;2023-11-21T10:19:57;41.67;;;16.08;;
20411;SDS011;10365;52.578;8.138;2023-11-21T10:22:22;38.20;;;16.98;;
20411;SDS011;10365;52.578;8.138;2023-11-21T10:24:48;36.17;;;18.13;;
20411;SDS011;10365;52.578;8.138;2023-11-21T10:27:15;35.30;;;19.08;;
20411;SDS011;10365;52.578;8.138;2023-11-21T10:29:41;40.33;;;18.63;;
20411;SDS011;10365;52.578;8.138;2023-11-21T10:32:07;31.15;;;16.05;;
20411;SDS011;10365;52.578;8.138;2023-11-21T10:34:32;27.50;;;14.80;;
20411;SDS011;10365;52.578;8.138;2023-11-21T10:36:58;30.90;;;14.95;;
20411;SDS011;10365;52.578;8.138;2023-11-21T10:39:24;26.08;;;14.32;;
20411;SDS011;10365;52.578;8.138;2023-11-21T10:41:53;26.42;;;14.23;;
20411;SDS011;10365;52.578;8.138;2023-11-21T10:44:20;26.58;;;14.40;;
20411;SDS011;10365;52.578;8.138;2023-11-21T10:46:49;21.27;;;12.00;;
20411;SDS011;10365;52.578;8.138;2023-11-21T10:49:17;18.17;;;11.18;;
20411;SDS011;10365;52.578;8.138;2023-11-21T10:51:43;17.58;;;11.15;;
20411;SDS011;10365;52.578;8.138;2023-11-21T10:54:09;18.15;;;10.95;;
20411;SDS011;10365;52.578;8.138;2023-11-21T10:56:34;17.95;;;10.70;;
20411;SDS011;10365;52.578;8.138;2023-11-21T10:59:05;15.45;;;9.40;;
20411;SDS011;10365;52.578;8.138;2023-11-21T11:01:32;16.05;;;9.32;;
20411;SDS011;10365;52.578;8.138;2023-11-21T11:03:58;12.77;;;8.18;;
20411;SDS011;10365;52.578;8.138;2023-11-21T11:06:25;11.55;;;8.32;;
20411;SDS011;10365;52.578;8.138;2023-11-21T11:08:52;12.40;;;7.82;;
20411;SDS011;10365;52.578;8.138;2023-11-21T11:11:18;12.85;;;7.15;;
20411;SDS011;10365;52.578;8.138;2023-11-21T11:13:43;11.90;;;6.75;;
20411;SDS011;10365;52.578;8.138;2023-11-21T11:16:12;11.18;;;6.72;;
20411;SDS011;10365;52.578;8.138;2023-11-21T11:18:42;10.77;;;6.97;;
20411;SDS011;10365;52.578;8.138;2023-11-21T11:21:11;10.77;;;7.07;;
20411;SDS011;10365;52.578;8.138;2023-11-21T11:23:45;9.73;;;6.60;;
20411;SDS011;10365;52.578;8.138;2023-11-21T11:26:23;14.65;;;7.22;;
20411;SDS011;10365;52.578;8.138;2023-11-21T11:29:02;10.93;;;7.15;;
20411;SDS011;10365;52.578;8.138;2023-11-21T11:34:19;9.20;;;6.15;;
20411;SDS011;10365;52.578;8.138;2023-11-21T11:37:05;11.07;;;6.47;;
20411;SDS011;10365;52.578;8.138;2023-11-21T11:39:37;15.48;;;8.50;;
20411;SDS011;10365;52.578;8.138;2023-11-21T11:42:04;14.27;;;7.43;;
20411;SDS011;10365;52.578;8.138;2023-11-21T11:47:23;11.95;;;6.43;;
20411;SDS011;10365;52.578;8.138;2023-11-21T11:49:55;9.77;;;6.88;;
20411;SDS011;10365;52.578;8.138;2023-11-21T11:55:00;15.30;;;8.73;;
20411;SDS011;10365;52.578;8.138;2023-11-21T11:57:29;13.23;;;7.60;;
20411;SDS011;10365;52.578;8.138;2023-11-21T12:00:07;11.75;;;7.53;;
20411;SDS011;10365;52.578;8.138;2023-11-21T12:02:52;14.02;;;8.80;;
20411;SDS011;10365;52.578;8.138;2023-11-21T12:05:19;15.70;;;8.50;;
20411;SDS011;10365;52.578;8.138;2023-11-21T12:10:14;13.50;;;7.80;;
20411;SDS011;10365;52.578;8.138;2023-11-21T12:12:43;15.07;;;8.52;;
20411;SDS011;10365;52.578;8.138;2023-11-21T12:15:10;14.75;;;7.82;;
20411;SDS011;10365;52.578;8.138;2023-11-21T12:17:36;13.90;;;8.30;;
20411;SDS011;10365;52.578;8.138;2023-11-21T12:20:03;16.00;;;8.10;;
20411;SDS011;10365;52.578;8.138;2023-11-21T12:22:29;10.93;;;7.00;;
20411;SDS011;10365;52.578;8.138;2023-11-21T12:24:56;14.85;;;7.07;;
20411;SDS011;10365;52.578;8.138;2023-11-21T12:27:21;14.82;;;9.13;;
20411;SDS011;10365;52.578;8.138;2023-11-21T12:29:46;15.27;;;9.77;;
20411;SDS011;10365;52.578;8.138;2023-11-21T12:32:12;14.27;;;8.57;;
20411;SDS011;10365;52.578;8.138;2023-11-21T12:34:40;13.27;;;7.93;;
20411;SDS011;10365;52.578;8.138;2023-11-21T12:37:05;15.32;;;6.82;;
20411;SDS011;10365;52.578;8.138;2023-11-21T12:39:31;11.77;;;6.57;;
20411;SDS011;10365;52.578;8.138;2023-11-21T12:42:03;10.85;;;6.43;;
20411;SDS011;10365;52.578;8.138;2023-11-21T12:44:28;12.43;;;7.20;;
20411;SDS011;10365;52.578;8.138;2023-11-21T12:46:54;11.15;;;7.95;;
20411;SDS011;10365;52.578;8.138;2023-11-21T12:49:20;12.95;;;7.57;;
20411;SDS011;10365;52.578;8.138;2023-11-21T12:51:50;13.27;;;7.15;;
20411;SDS011;10365;52.578;8.138;2023-11-21T12:54:15;11.70;;;7.25;;
20411;SDS011;10365;52.578;8.138;2023-11-21T12:56:44;13.77;;;8.45;;
20411;SDS011;10365;52.578;8.138;2023-11-21T12:59:12;12.57;;;7.32;;
20411;SDS011;10365;52.578;8.138;2023-11-21T13:01:41;10.75;;;6.82;;
20411;SDS011;10365;52.578;8.138;2023-11-21T13:04:07;11.00;;;6.40;;
20411;SDS011;10365;52.578;8.138;2023-11-21T13:06:32;16.88;;;7.38;;
20411;SDS011;10365;52.578;8.138;2023-11-21T13:09:04;10.38;;;6.82;;
20411;SDS011;10365;52.578;8.138;2023-11-21T13:11:37;11.13;;;7.05;;
20411;SDS011;10365;52.578;8.138;2023-11-21T13:14:06;12.43;;;7.47;;
20411;SDS011;10365;52.578;8.138;2023-11-21T13:16:31;12.85;;;7.95;;
20411;SDS011;10365;52.578;8.138;2023-11-21T13:18:56;13.82;;;8.20;;
20411;SDS011;10365;52.578;8.138;2023-11-21T13:21:23;10.98;;;6.55;;
20411;SDS011;10365;52.578;8.138;2023-11-21T13:23:48;12.57;;;7.65;;
20411;SDS011;10365;52.578;8.138;2023-11-21T13:26:16;12.57;;;6.78;;
20411;SDS011;10365;52.578;8.138;2023-11-21T13:28:41;11.43;;;7.00;;
20411;SDS011;10365;52.578;8.138;2023-11-21T13:31:11;13.00;;;7.05;;
20411;SDS011;10365;52.578;8.138;2023-11-21T13:33:52;11.20;;;6.78;;
20411;SDS011;10365;52.578;8.138;2023-11-21T13:36:22;10.68;;;6.63;;
20411;SDS011;10365;52.578;8.138;2023-11-21T13:38:49;12.43;;;7.38;;
20411;SDS011;10365;52.578;8.138;2023-11-21T13:41:14;10.65;;;6.88;;
20411;SDS011;10365;52.578;8.138;2023-11-21T13:43:40;11.30;;;7.20;;
20411;SDS011;10365;52.578;8.138;2023-11-21T13:46:09;16.88;;;11.70;;
20411;SDS011;10365;52.578;8.138;2023-11-21T13:48:42;16.60;;;9.27;;
20411;SDS011;10365;52.578;8.138;2023-11-21T13:51:11;18.90;;;10.70;;
20411;SDS011;10365;52.578;8.138;2023-11-21T13:53:46;15.73;;;10.65;;
20411;SDS011;10365;52.578;8.138;2023-11-21T13:56:18;18.50;;;10.57;;
20411;SDS011;10365;52.578;8.138;2023-11-21T13:58:52;11.80;;;7.68;;
20411;SDS011;10365;52.578;8.138;2023-11-21T14:01:18;14.25;;;7.90;;
20411;SDS011;10365;52.578;8.138;2023-11-21T14:03:56;12.50;;;7.32;;
20411;SDS011;10365;52.578;8.138;2023-11-21T14:06:48;16.95;;;11.68;;
20411;SDS011;10365;52.578;8.138;2023-11-21T14:09:18;17.38;;;11.63;;
20411;SDS011;10365;52.578;8.138;2023-11-21T14:12:00;15.95;;;9.30;;
20411;SDS011;10365;52.578;8.138;2023-11-21T14:14:28;12.85;;;8.98;;
20411;SDS011;10365;52.578;8.138;2023-11-21T14:16:53;13.20;;;8.38;;
20411;SDS011;10365;52.578;8.138;2023-11-21T14:19:20;12.13;;;7.38;;
20411;SDS011;10365;52.578;8.138;2023-11-21T14:21:46;12.65;;;7.50;;
20411;SDS011;10365;52.578;8.138;2023-11-21T14:24:12;12.30;;;7.65;;
20411;SDS011;10365;52.578;8.138;2023-11-21T14:26:44;10.90;;;6.65;;
20411;SDS011;10365;52.578;8.138;2023-11-21T14:29:13;12.13;;;7.35;;
20411;SDS011;10365;52.578;8.138;2023-11-21T14:31:45;13.95;;;7.53;;
20411;SDS011;10365;52.578;8.138;2023-11-21T14:34:10;12.23;;;7.88;;